Time;durP1;ratioP1;P1;durP2;ratioP2;P2;SDS_P1;SDS_P2;PMS_P1;PMS_P2;Temp;Humidity;BMP_temperature;BMP_pressure;BME280_temperature;BME280_humidity;BME280_pressure;Samples;Min_cycle;Max_cycle;Signal;HPM_P1;HPM_P2
2022/04/23 00:01:37;;;;;;;20.60;14.80;;;;;;;9.14;63.61;98240.73;233288;1217;139774;-62
2022/04/23 00:06:40;;;;;;;19.50;14.60;;;;;;;9.13;63.41;98235.99;233146;1219;139311;-62
2022/04/23 00:11:43;;;;;;;20.90;14.80;;;;;;;9.09;63.37;98237.54;233233;1219;139211;-62
2022/04/23 00:16:46;;;;;;;20.00;14.70;;;;;;;9.03;63.42;98234.03;233328;1217;139025;-62
2022/04/23 00:21:49;;;;;;;17.70;14.10;;;;;;;8.98;63.47;98234.56;233280;1217;138924;-59
2022/04/23 00:26:53;;;;;;;16.20;13.20;;;;;;;8.93;63.41;98232.25;233131;1217;139670;-60
2022/04/23 00:31:57;;;;;;;19.10;13.30;;;;;;;8.89;63.34;98227.23;233146;1219;138892;-60
2022/04/23 00:37:00;;;;;;;19.80;13.70;;;;;;;8.85;63.36;98224.97;233212;1219;139365;-58
2022/04/23 00:42:08;;;;;;;19.50;14.40;;;;;;;8.81;63.16;98219.44;233364;1217;139103;-62
2022/04/23 00:47:12;;;;;;;18.50;13.00;;;;;;;8.75;63.31;98223.20;233251;1217;138520;-60
2022/04/23 00:52:15;;;;;;;19.70;12.50;;;;;;;8.73;63.26;98221.77;233441;1217;139927;-61
2022/04/23 00:57:18;;;;;;;19.20;13.80;;;;;;;8.73;63.17;98221.77;233279;1217;139506;-61
2022/04/23 01:02:22;;;;;;;19.80;13.20;;;;;;;8.74;63.17;98226.81;233283;1217;139970;-60
2022/04/23 01:07:26;;;;;;;18.00;13.10;;;;;;;8.74;63.13;98227.30;233330;1217;138615;-60
2022/04/23 01:12:29;;;;;;;16.10;12.60;;;;;;;8.72;63.06;98228.70;233345;1217;138628;-60
2022/04/23 01:17:33;;;;;;;15.60;12.60;;;;;;;8.69;63.01;98229.27;233369;1217;138892;-59
2022/04/23 01:22:37;;;;;;;18.70;12.50;;;;;;;8.63;62.91;98229.99;233337;1217;139012;-61
2022/04/23 01:27:41;;;;;;;16.70;12.40;;;;;;;8.58;62.87;98226.65;233318;1217;138971;-61
2022/04/23 01:32:44;;;;;;;17.00;12.60;;;;;;;8.53;62.96;98233.55;233371;1217;139089;-61
2022/04/23 01:37:47;;;;;;;16.50;12.40;;;;;;;8.48;62.80;98229.11;233239;1217;139311;-63
2022/04/23 01:42:50;;;;;;;16.70;11.60;;;;;;;8.43;62.79;98226.91;233262;1217;138740;-60
2022/04/23 01:47:53;;;;;;;15.60;11.60;;;;;;;8.40;62.71;98221.84;233368;1217;139286;-62
2022/04/23 01:52:57;;;;;;;14.60;11.30;;;;;;;8.37;62.86;98220.11;233293;1217;139597;-61
2022/04/23 01:58:00;;;;;;;15.60;12.00;;;;;;;8.33;62.78;98218.23;233160;1219;138921;-62
2022/04/23 02:03:04;;;;;;;16.70;10.90;;;;;;;8.27;62.79;98220.84;233109;1217;138849;-60
2022/04/23 02:08:09;;;;;;;15.90;10.80;;;;;;;8.27;62.75;98220.55;233144;1217;139846;-62
2022/04/23 02:13:12;;;;;;;14.40;10.80;;;;;;;8.28;62.81;98223.09;233238;1217;139416;-61
2022/04/23 02:18:16;;;;;;;16.20;10.90;;;;;;;8.32;62.91;98223.91;233233;1217;138858;-62
2022/04/23 02:23:19;;;;;;;14.80;11.70;;;;;;;8.31;62.74;98223.27;233249;1217;139338;-59
2022/04/23 02:28:23;;;;;;;16.60;11.60;;;;;;;8.29;62.73;98229.23;233136;1217;138929;-59
2022/04/23 02:33:26;;;;;;;17.40;12.20;;;;;;;8.25;62.61;98231.06;233272;1217;139606;-59
2022/04/23 02:38:29;;;;;;;15.10;11.40;;;;;;;8.21;62.41;98228.39;233256;1217;139432;-59
2022/04/23 02:43:35;;;;;;;15.40;11.80;;;;;;;8.15;62.53;98237.94;233240;1218;139241;-60
2022/04/23 02:48:38;;;;;;;14.20;11.00;;;;;;;8.10;62.58;98238.47;233221;1217;139220;-61
2022/04/23 02:53:43;;;;;;;16.20;11.60;;;;;;;8.04;62.71;98240.96;233427;1217;138571;-62
2022/04/23 02:58:49;;;;;;;17.90;13.00;;;;;;;7.99;62.80;98242.87;233139;1219;140637;-63
2022/04/23 03:03:54;;;;;;;16.20;12.20;;;;;;;7.95;62.64;98251.45;233147;1217;138385;-63
2022/04/23 03:09:02;;;;;;;15.20;11.30;;;;;;;7.90;62.53;98249.47;233279;1217;138794;-61
2022/04/23 03:14:06;;;;;;;17.60;12.20;;;;;;;7.82;62.57;98251.17;233328;1217;139285;-62
2022/04/23 03:19:09;;;;;;;18.60;11.50;;;;;;;7.75;62.67;98257.13;233281;1217;139394;-62
2022/04/23 03:24:12;;;;;;;15.00;11.90;;;;;;;7.70;62.54;98268.90;233241;1217;139045;-61
2022/04/23 03:29:15;;;;;;;16.80;12.50;;;;;;;7.67;62.48;98267.98;233361;1217;139764;-59
2022/04/23 03:34:18;;;;;;;16.80;12.70;;;;;;;7.68;62.78;98267.42;233268;1217;139067;-61
2022/04/23 03:39:21;;;;;;;16.60;12.60;;;;;;;7.69;62.91;98270.71;233235;1217;138707;-63
2022/04/23 03:44:24;;;;;;;180.00;141.50;;;;;;;7.67;62.74;98276.87;233397;1217;139831;-59
2022/04/23 03:49:29;;;;;;;25.20;18.10;;;;;;;7.67;63.09;98275.59;233099;1217;139291;-63
2022/04/23 03:54:32;;;;;;;19.00;13.20;;;;;;;7.66;62.77;98279.92;233256;1217;139142;-62
2022/04/23 03:59:37;;;;;;;16.30;12.90;;;;;;;7.56;62.57;98275.21;233298;1217;138960;-60
2022/04/23 04:04:42;;;;;;;16.20;13.00;;;;;;;7.53;62.78;98283.90;233210;1217;138703;-60
2022/04/23 04:09:45;;;;;;;16.10;12.70;;;;;;;7.47;62.58;98283.21;233150;1217;140042;-60
2022/04/23 04:14:48;;;;;;;16.40;12.00;;;;;;;7.43;62.86;98282.77;233244;1217;138812;-59
2022/04/23 04:19:53;;;;;;;17.10;11.90;;;;;;;7.39;62.62;98286.36;233204;1217;139560;-60
2022/04/23 04:24:57;;;;;;;29.70;23.90;;;;;;;7.36;62.89;98286.52;233220;1217;138706;-60
2022/04/23 04:30:11;;;;;;;19.40;13.40;;;;;;;7.41;63.00;98285.22;233276;1217;138768;-61
2022/04/23 04:35:14;;;;;;;15.90;12.20;;;;;;;7.40;62.90;98283.31;233351;1217;139581;-60
2022/04/23 04:40:18;;;;;;;17.90;13.40;;;;;;;7.39;62.64;98290.21;233287;1217;140212;-60
2022/04/23 04:45:21;;;;;;;19.40;13.30;;;;;;;7.48;63.06;98292.71;233272;1217;139950;-61
2022/04/23 04:50:24;;;;;;;19.10;13.00;;;;;;;7.53;63.04;98294.31;233247;1216;139179;-58
2022/04/23 04:55:27;;;;;;;16.10;12.20;;;;;;;7.52;62.71;98294.40;233226;1217;139189;-61
2022/04/23 05:00:30;;;;;;;17.10;12.60;;;;;;;7.53;63.05;98299.05;233195;1217;139223;-58
2022/04/23 05:05:33;;;;;;;17.20;12.60;;;;;;;7.56;62.88;98300.98;233306;1219;138845;-60
2022/04/23 05:10:36;;;;;;;20.50;13.30;;;;;;;7.66;62.99;98305.18;233282;1217;139122;-60
2022/04/23 05:15:39;;;;;;;17.40;12.20;;;;;;;7.73;62.73;98304.94;233309;1217;138718;-60
2022/04/23 05:20:43;;;;;;;15.60;12.10;;;;;;;7.78;62.62;98303.72;233209;1217;138744;-58
2022/04/23 05:25:46;;;;;;;15.00;11.80;;;;;;;7.84;62.66;98299.84;233116;1218;139514;-60
2022/04/23 05:30:49;;;;;;;17.20;12.70;;;;;;;7.90;62.55;98298.90;233267;1217;139049;-60
2022/04/23 05:35:52;;;;;;;16.60;11.80;;;;;;;7.92;62.36;98300.52;233445;1217;138702;-60
2022/04/23 05:40:55;;;;;;;17.60;12.30;;;;;;;7.93;62.29;98298.75;233305;1217;138989;-60
2022/04/23 05:46:00;;;;;;;16.20;12.20;;;;;;;7.92;62.13;98297.38;233080;1218;138299;-61
2022/04/23 05:51:03;;;;;;;17.40;12.50;;;;;;;7.86;62.00;98301.42;233167;1219;138661;-58
2022/04/23 05:56:06;;;;;;;19.50;13.10;;;;;;;7.81;61.87;98303.68;233102;1219;140611;-59
2022/04/23 06:01:10;;;;;;;17.70;11.60;;;;;;;7.88;62.17;98300.79;233267;1219;139031;-61
2022/04/23 06:06:13;;;;;;;15.50;12.00;;;;;;;7.95;62.22;98299.77;233380;1217;139211;-62
2022/04/23 06:11:16;;;;;;;15.90;11.80;;;;;;;8.08;62.09;98300.56;233476;1217;138985;-59
2022/04/23 06:16:19;;;;;;;13.80;10.70;;;;;;;8.19;62.30;98305.15;233399;1217;141001;-59
2022/04/23 06:21:22;;;;;;;17.40;12.10;;;;;;;8.32;62.14;98311.61;233304;1215;138890;-60
2022/04/23 06:26:26;;;;;;;12.80;9.50;;;;;;;8.51;62.17;98313.93;233451;1217;139725;-61
2022/04/23 06:31:29;;;;;;;11.70;9.00;;;;;;;8.72;62.02;98314.86;233303;1217;139666;-61
2022/04/23 06:36:33;;;;;;;11.20;8.30;;;;;;;8.91;61.84;98308.82;233291;1217;138853;-60
2022/04/23 06:41:36;;;;;;;10.60;7.80;;;;;;;9.04;61.60;98304.93;233494;1217;138976;-61
2022/04/23 06:46:41;;;;;;;22.80;15.80;;;;;;;9.14;61.22;98301.20;233409;1216;139064;-60
2022/04/23 06:51:44;;;;;;;9.80;7.30;;;;;;;9.30;61.11;98302.77;233224;1217;139432;-60
2022/04/23 06:56:47;;;;;;;9.70;7.40;;;;;;;9.48;61.04;98296.91;233056;1217;138962;-59
2022/04/23 07:01:50;;;;;;;9.30;6.70;;;;;;;9.63;60.71;98292.85;233306;1217;138815;-59
2022/04/23 07:06:53;;;;;;;9.70;6.00;;;;;;;9.75;60.19;98295.06;233440;1217;138415;-57
2022/04/23 07:11:58;;;;;;;8.50;6.40;;;;;;;9.86;60.05;98289.33;233410;1217;138535;-58
2022/04/23 07:17:01;;;;;;;7.80;6.00;;;;;;;9.96;59.72;98294.61;233303;1217;138776;-60
2022/04/23 07:22:04;;;;;;;7.10;5.60;;;;;;;10.03;59.48;98289.36;233351;1217;139184;-58
2022/04/23 07:27:07;;;;;;;9.40;5.90;;;;;;;10.11;59.03;98284.02;233210;1217;140847;-61
2022/04/23 07:32:10;;;;;;;7.20;5.80;;;;;;;10.18;59.09;98276.69;233325;1217;139854;-60
2022/04/23 07:37:28;;;;;;;8.10;5.80;;;;;;;10.29;59.03;98274.77;233352;1217;139615;-60
2022/04/23 07:42:32;;;;;;;7.00;5.70;;;;;;;10.42;58.85;98275.90;233295;1217;139232;-60
2022/04/23 07:47:35;;;;;;;6.50;5.50;;;;;;;10.50;58.33;98272.86;233435;1217;139637;-61
2022/04/23 07:52:38;;;;;;;8.00;5.30;;;;;;;10.63;58.46;98270.41;233302;1217;139697;-60
2022/04/23 07:57:41;;;;;;;8.40;6.00;;;;;;;10.76;58.17;98272.31;233343;1217;139386;-61
2022/04/23 08:02:44;;;;;;;8.00;5.50;;;;;;;10.85;57.78;98274.61;233426;1216;139463;-60
2022/04/23 08:07:48;;;;;;;7.50;5.80;;;;;;;10.91;57.53;98270.30;233267;1217;139098;-59
2022/04/23 08:12:51;;;;;;;7.60;6.20;;;;;;;11.00;57.65;98267.45;233294;1217;139436;-61
2022/04/23 08:17:55;;;;;;;8.90;6.20;;;;;;;11.09;57.54;98260.77;233425;1217;139491;-60
2022/04/23 08:22:58;;;;;;;7.30;5.80;;;;;;;11.30;57.90;98258.41;233307;1217;139552;-59
2022/04/23 08:33:23;;;;;;;8.40;6.00;;;;;;;11.80;57.21;98247.34;233295;1215;139119;-60
2022/04/23 08:38:27;;;;;;;6.30;5.70;;;;;;;11.96;57.33;98241.67;233387;1217;140164;-61
2022/04/23 08:43:30;;;;;;;6.60;5.30;;;;;;;12.17;57.43;98238.02;233433;1217;139336;-60
2022/04/23 08:48:38;;;;;;;7.80;5.10;;;;;;;12.30;56.37;98226.83;233281;1217;139302;-60
2022/04/23 08:53:45;;;;;;;5.40;4.70;;;;;;;12.45;56.09;98217.56;233430;1217;140619;-60
2022/04/23 08:58:48;;;;;;;4.00;3.60;;;;;;;12.55;55.74;98214.23;233538;1217;139181;-61
2022/04/23 09:03:51;;;;;;;6.00;3.60;;;;;;;12.58;55.13;98215.63;233358;1217;139600;-61
2022/04/23 09:09:07;;;;;;;4.40;3.80;;;;;;;12.70;55.04;98213.02;233365;1217;139128;-61
2022/04/23 09:14:30;;;;;;;4.30;3.90;;;;;;;12.86;54.91;98207.71;233285;1217;142051;-59
2022/04/23 09:24:56;;;;;;;4.00;3.40;;;;;;;13.16;54.74;98201.10;233301;1217;139380;-62
2022/04/23 09:30:06;;;;;;;4.20;3.40;;;;;;;13.36;54.28;98195.33;233197;1217;138681;-62
2022/04/23 09:35:12;;;;;;;4.20;3.60;;;;;;;13.49;53.94;98195.39;233271;1217;139196;-62
2022/04/23 09:40:24;;;;;;;5.20;3.70;;;;;;;13.48;53.18;98198.34;233312;1217;139120;-61
2022/04/23 09:45:29;;;;;;;5.30;3.70;;;;;;;13.48;53.03;98189.22;233365;1217;140903;-61
2022/04/23 09:50:39;;;;;;;4.70;3.90;;;;;;;13.57;52.84;98189.73;233381;1217;138682;-60
2022/04/23 09:55:43;;;;;;;4.00;3.40;;;;;;;13.70;53.15;98190.87;233176;1217;140508;-60
2022/04/23 10:00:47;;;;;;;5.50;4.30;;;;;;;13.73;52.60;98183.84;233149;1219;139351;-61
2022/04/23 10:05:51;;;;;;;3.90;3.40;;;;;;;13.85;52.58;98190.05;233380;1217;138617;-59
2022/04/23 10:11:11;;;;;;;4.90;3.60;;;;;;;14.02;52.18;98186.27;233252;1217;138768;-60
2022/04/23 10:16:16;;;;;;;3.90;3.40;;;;;;;14.10;52.12;98182.30;233249;1217;139256;-61
2022/04/23 10:21:31;;;;;;;78.10;56.60;;;;;;;14.17;51.92;98181.63;233323;1217;138875;-61
2022/04/23 10:27:06;;;;;;;12.90;9.40;;;;;;;14.39;53.16;98191.77;233019;1217;138841;-60
2022/04/23 10:32:16;;;;;;;8.20;4.80;;;;;;;15.43;56.37;98179.97;233183;1217;139018;-58
2022/04/23 10:37:23;;;;;;;5.90;4.10;;;;;;;16.72;55.15;98174.23;233279;1217;138421;-60
2022/04/23 10:42:26;;;;;;;5.80;3.50;;;;;;;17.06;53.01;98169.52;233281;1217;139129;-60
2022/04/23 10:47:32;;;;;;;4.20;3.70;;;;;;;17.08;51.76;98174.48;233387;1217;139997;-62
2022/04/23 10:52:35;;;;;;;5.90;3.60;;;;;;;17.14;51.32;98172.70;233301;1216;139907;-60
2022/04/23 10:57:39;;;;;;;5.50;3.50;;;;;;;17.26;51.25;98179.52;233204;1217;139467;-58
2022/04/23 11:02:47;;;;;;;5.00;3.90;;;;;;;17.59;52.08;98173.94;233234;1217;138872;-61
2022/04/23 11:13:32;;;;;;;69.20;36.70;;;;;;;18.62;50.91;98163.06;233111;1217;138974;-60
2022/04/23 11:18:35;;;;;;;9.70;5.90;;;;;;;18.50;48.75;98158.29;233177;1217;139038;-61
2022/04/23 11:23:42;;;;;;;4.10;3.70;;;;;;;18.09;47.89;98159.86;233325;1217;138946;-60
2022/04/23 11:28:46;;;;;;;4.10;3.70;;;;;;;17.72;47.55;98160.52;233137;1217;138917;-62
2022/04/23 11:33:50;;;;;;;3.90;3.50;;;;;;;17.36;47.57;98164.11;233303;1217;139305;-62
2022/04/23 11:39:03;;;;;;;3.80;3.50;;;;;;;17.14;47.86;98158.54;233225;1217;141193;-61
2022/04/23 11:45:05;;;;;;;9.10;3.50;;;;;;;17.41;47.94;98155.02;233028;1217;140418;-58
2022/04/23 11:49:42;;;;;;;7.20;3.90;;;;;;;17.62;47.35;98149.31;233186;1217;138805;-60
2022/04/23 11:54:45;;;;;;;40.20;30.00;;;;;;;17.76;47.46;98147.39;233172;1217;138927;-62
2022/04/23 11:59:51;;;;;;;19.40;13.90;;;;;;;18.18;48.95;98154.75;233306;1217;139666;-62
2022/04/23 12:05:00;;;;;;;14.80;10.30;;;;;;;18.69;48.69;98146.67;233223;1217;138754;-60
2022/04/23 12:10:03;;;;;;;5.60;4.70;;;;;;;18.98;47.64;98144.80;233335;1217;139592;-61
2022/04/23 12:15:11;;;;;;;5.60;4.30;;;;;;;19.13;46.63;98137.73;233269;1217;138738;-61
2022/04/23 12:20:17;;;;;;;5.30;4.40;;;;;;;19.10;46.16;98134.60;233258;1217;139815;-62
2022/04/23 12:25:21;;;;;;;6.40;4.50;;;;;;;19.23;45.84;98130.27;233374;1217;138806;-58
2022/04/23 12:41:17;;;;;;;9.30;6.30;;;;;;;18.56;44.38;98131.57;233380;1216;139396;-61
2022/04/23 12:46:20;;;;;;;5.30;4.70;;;;;;;18.37;44.80;98133.69;233315;1217;140225;-60
2022/04/23 12:51:23;;;;;;;153.60;103.30;;;;;;;18.66;45.73;98124.73;233109;1216;138823;-62
2022/04/23 12:56:34;;;;;;;7.50;6.20;;;;;;;18.64;45.20;98124.73;233203;1217;139585;-59
2022/04/23 13:01:37;;;;;;;7.20;4.00;;;;;;;18.80;45.16;98125.54;233314;1217;139679;-60
2022/04/23 13:12:03;;;;;;;4.70;4.00;;;;;;;18.30;44.10;98123.96;233183;1217;140380;-61
2022/04/23 13:17:06;;;;;;;3.90;3.50;;;;;;;18.03;43.93;98119.19;233117;1217;139094;-61
2022/04/23 13:22:09;;;;;;;4.10;3.30;;;;;;;18.31;44.33;98118.57;233782;1217;138976;-62
2022/04/23 13:27:12;;;;;;;5.10;3.60;;;;;;;18.29;44.19;98123.08;233642;1216;138889;-59
2022/04/23 13:32:15;;;;;;;5.50;3.80;;;;;;;18.07;43.89;98130.80;233693;1217;141594;-61
2022/04/23 13:37:19;;;;;;;4.00;3.40;;;;;;;17.83;44.10;98127.22;233810;1217;140828;-61
2022/04/23 13:42:25;;;;;;;5.00;3.50;;;;;;;18.08;44.82;98118.69;233807;1216;138991;-62
2022/04/23 13:47:28;;;;;;;122.60;88.30;;;;;;;18.53;44.46;98109.80;233692;1217;138707;-62
2022/04/23 13:52:31;;;;;;;13.90;8.20;;;;;;;18.54;43.48;98112.41;233697;1217;139478;-61
2022/04/23 13:57:34;;;;;;;5.50;4.20;;;;;;;18.34;43.20;98106.21;233853;1217;138996;-60
2022/04/23 14:13:22;;;;;;;5.40;3.80;;;;;;;18.32;43.51;98107.92;233810;1217;139798;-60
2022/04/23 14:18:25;;;;;;;6.20;3.10;;;;;;;18.13;42.77;98111.34;233671;1217;139064;-58
2022/04/23 14:23:28;;;;;;;4.60;3.50;;;;;;;17.79;42.80;98116.96;233839;1217;138826;-57
2022/04/23 14:28:31;;;;;;;36.00;25.70;;;;;;;17.57;42.62;98117.86;233802;1217;138736;-59
2022/04/23 14:33:34;;;;;;;16.40;9.40;;;;;;;17.36;42.89;98113.19;233750;1217;139978;-59
2022/04/23 14:38:39;;;;;;;6.00;3.80;;;;;;;17.38;43.56;98114.73;233737;1217;139233;-60
2022/04/23 14:43:42;;;;;;;6.30;3.30;;;;;;;17.26;43.18;98116.77;233769;1215;138767;-59
2022/04/23 14:48:45;;;;;;;4.00;3.60;;;;;;;17.10;42.96;98129.40;233696;1217;161193;-59
2022/04/23 14:53:48;;;;;;;6.00;3.80;;;;;;;17.00;43.59;98129.08;233911;1217;138670;-58
2022/04/23 14:58:51;;;;;;;5.90;4.20;;;;;;;16.92;43.64;98128.13;233816;1216;139616;-58
2022/04/23 15:03:54;;;;;;;5.60;4.10;;;;;;;16.82;43.55;98133.19;233766;1217;138893;-58
2022/04/23 15:08:57;;;;;;;6.60;3.50;;;;;;;16.67;43.78;98144.89;233781;1217;138988;-59
2022/04/23 15:14:00;;;;;;;5.90;3.70;;;;;;;16.53;43.71;98147.83;233753;1217;140950;-57
2022/04/23 15:19:04;;;;;;;6.20;3.60;;;;;;;16.41;43.68;98148.77;233547;1216;138852;-60
2022/04/23 15:24:07;;;;;;;6.40;4.30;;;;;;;16.30;43.62;98151.96;233909;1217;138727;-58
2022/04/23 15:29:10;;;;;;;75.50;57.80;;;;;;;16.21;43.98;98158.73;233906;1217;139251;-59
2022/04/23 15:34:13;;;;;;;7.00;4.50;;;;;;;16.29;44.97;98164.08;233280;1217;140479;-59
2022/04/23 15:39:16;;;;;;;4.70;3.20;;;;;;;16.31;44.31;98154.21;233126;1217;139045;-59
2022/04/23 15:44:26;;;;;;;5.80;3.10;;;;;;;16.32;44.38;98155.40;233148;1217;139536;-60
2022/04/23 15:49:29;;;;;;;3.50;2.90;;;;;;;16.26;44.40;98148.40;233112;1217;138940;-60
2022/04/23 15:54:32;;;;;;;5.00;3.10;;;;;;;16.24;44.19;98149.89;233085;1217;139186;-60
2022/04/23 15:59:35;;;;;;;3.20;2.90;;;;;;;16.41;44.15;98139.60;233219;1217;139214;-59
2022/04/23 16:04:39;;;;;;;5.90;3.00;;;;;;;16.83;44.30;98137.68;233055;1217;138797;-58
2022/04/23 16:09:42;;;;;;;3.40;3.10;;;;;;;17.09;43.70;98134.21;233188;1217;138829;-57
2022/04/23 16:14:45;;;;;;;3.30;3.00;;;;;;;17.13;43.46;98137.67;233103;1217;139448;-59
2022/04/23 16:20:09;;;;;;;5.00;3.40;;;;;;;17.12;43.31;98138.80;233197;1217;139170;-59
2022/04/23 16:25:12;;;;;;;4.90;3.30;;;;;;;17.20;43.29;98135.63;232882;1219;138558;-59
2022/04/23 16:30:16;;;;;;;98.30;76.20;;;;;;;17.25;43.30;98134.94;233116;1217;138835;-59
2022/04/23 16:35:19;;;;;;;6.80;5.00;;;;;;;17.18;43.10;98137.45;233152;1217;139261;-59
2022/04/23 16:51:06;;;;;;;5.40;3.30;;;;;;;16.48;42.40;98153.27;233277;1217;139666;-59
2022/04/23 16:56:09;;;;;;;4.20;3.40;;;;;;;16.19;42.70;98166.31;233348;1217;139713;-60
2022/04/23 17:01:12;;;;;;;4.40;2.90;;;;;;;15.97;42.69;98168.33;233295;1217;139494;-60
2022/04/23 17:06:17;;;;;;;4.60;3.30;;;;;;;15.77;43.03;98171.67;233308;1217;139202;-59
2022/04/23 17:11:20;;;;;;;5.10;3.40;;;;;;;15.57;43.29;98171.98;233282;1217;139212;-61
2022/04/23 17:16:23;;;;;;;4.10;3.10;;;;;;;15.35;43.47;98178.52;233230;1217;138953;-57
2022/04/23 17:21:29;;;;;;;4.60;3.60;;;;;;;15.16;43.79;98184.98;233148;1217;138779;-61
2022/04/23 17:26:32;;;;;;;3.70;3.00;;;;;;;14.97;43.88;98193.04;233212;1217;139389;-61
2022/04/23 17:31:35;;;;;;;5.70;3.90;;;;;;;14.80;44.37;98189.83;233190;1217;139734;-61
2022/04/23 17:36:38;;;;;;;162.40;107.50;;;;;;;14.64;44.44;98192.71;233169;1217;139280;-59
2022/04/23 17:41:43;;;;;;;13.80;8.30;;;;;;;14.55;44.90;98185.95;233369;1217;139892;-61
2022/04/23 17:46:47;;;;;;;6.20;4.60;;;;;;;14.48;44.72;98192.21;233257;1217;140652;-58
2022/04/23 17:51:50;;;;;;;6.20;4.10;;;;;;;14.32;44.77;98199.02;233158;1216;139773;-60
2022/04/23 17:56:54;;;;;;;7.10;3.80;;;;;;;14.13;44.82;98202.20;233229;1217;139123;-59
2022/04/23 18:07:27;;;;;;;5.40;4.00;;;;;;;13.73;45.38;98212.20;233244;1217;138990;-59
2022/04/23 18:12:31;;;;;;;6.20;4.00;;;;;;;13.56;45.66;98212.27;233219;1217;140121;-59
2022/04/23 18:17:36;;;;;;;7.20;4.40;;;;;;;13.43;46.04;98219.61;233252;1217;139608;-59
2022/04/23 18:22:39;;;;;;;11.80;5.30;;;;;;;13.35;45.77;98226.35;233212;1217;139218;-59
2022/04/23 18:27:42;;;;;;;10.50;5.40;;;;;;;13.22;46.21;98228.11;233303;1217;140202;-60
2022/04/23 18:32:45;;;;;;;8.20;5.30;;;;;;;13.11;46.84;98234.30;233359;1217;139413;-56
2022/04/23 18:37:48;;;;;;;16.20;5.30;;;;;;;13.00;47.10;98232.34;233277;1217;139512;-59
2022/04/23 18:42:51;;;;;;;9.60;5.60;;;;;;;12.88;47.10;98229.48;233321;1217;139106;-60
2022/04/23 18:47:54;;;;;;;9.80;5.50;;;;;;;12.72;47.56;98231.13;233370;1217;140703;-59
2022/04/23 18:52:58;;;;;;;11.40;6.00;;;;;;;12.58;47.88;98229.11;233158;1217;139529;-59
2022/04/23 18:58:02;;;;;;;12.10;6.30;;;;;;;12.42;48.13;98223.34;233020;1217;139901;-61
2022/04/23 19:03:07;;;;;;;11.10;6.10;;;;;;;12.26;48.35;98226.97;233119;1214;139552;-60
2022/04/23 19:08:10;;;;;;;8.90;5.80;;;;;;;12.12;48.60;98223.35;233252;1216;138758;-59
2022/04/23 19:13:13;;;;;;;12.20;5.70;;;;;;;12.02;48.99;98216.14;233257;1217;139638;-60
2022/04/23 19:18:17;;;;;;;9.30;5.80;;;;;;;11.92;49.16;98212.30;233376;1217;140278;-59
2022/04/23 19:28:42;;;;;;;23.60;13.90;;;;;;;11.82;50.20;98210.04;233235;1217;139589;-59
2022/04/23 19:33:45;;;;;;;20.40;11.20;;;;;;;11.76;49.71;98206.50;233179;1217;139170;-60
2022/04/23 19:38:48;;;;;;;20.30;11.50;;;;;;;11.65;49.79;98206.80;233341;1217;138773;-58
2022/04/23 19:43:51;;;;;;;23.90;15.70;;;;;;;11.53;50.23;98202.23;233494;1217;139722;-58
2022/04/23 19:48:54;;;;;;;29.60;18.50;;;;;;;11.43;50.63;98203.20;233357;1217;139053;-59
2022/04/23 19:53:57;;;;;;;26.50;14.90;;;;;;;11.31;50.50;98204.14;233467;1217;139509;-56
2022/04/23 19:59:00;;;;;;;22.20;14.80;;;;;;;11.22;50.84;98199.07;233421;1217;139117;-59
2022/04/23 20:04:04;;;;;;;29.40;17.50;;;;;;;11.09;51.26;98198.39;233448;1217;139568;-58
2022/04/23 20:09:07;;;;;;;27.80;17.90;;;;;;;11.00;51.14;98193.48;233518;1217;139257;-59
2022/04/23 20:14:11;;;;;;;29.60;18.60;;;;;;;10.91;51.31;98191.65;233549;1217;138855;-59
2022/04/23 20:19:14;;;;;;;35.70;21.40;;;;;;;10.81;51.52;98194.05;233072;1217;139743;-58
2022/04/23 20:24:17;;;;;;;34.40;21.30;;;;;;;10.72;51.90;98189.95;233467;1217;139280;-60
2022/04/23 20:29:27;;;;;;;43.00;24.00;;;;;;;10.62;52.15;98186.21;233362;1217;139568;-62
2022/04/23 20:34:30;;;;;;;41.30;24.60;;;;;;;10.53;52.40;98182.48;233261;1217;139165;-59
2022/04/23 20:39:37;;;;;;;43.90;26.50;;;;;;;10.41;52.50;98177.17;233389;1217;140447;-57
2022/04/23 20:44:40;;;;;;;43.20;26.80;;;;;;;10.32;52.41;98176.84;233458;1217;139459;-60
2022/04/23 20:49:45;;;;;;;44.70;28.60;;;;;;;10.22;52.42;98176.14;233357;1217;140018;-61
2022/04/23 20:54:48;;;;;;;46.10;27.10;;;;;;;10.09;52.71;98181.69;233315;1217;140380;-60
2022/04/23 20:59:51;;;;;;;42.60;25.00;;;;;;;9.99;53.02;98192.37;233522;1217;139980;-60
2022/04/23 21:04:54;;;;;;;41.40;25.30;;;;;;;10.01;53.24;98194.33;233428;1217;139219;-61
2022/04/23 21:09:57;;;;;;;40.70;25.40;;;;;;;10.04;53.12;98196.36;233448;1217;140630;-60
2022/04/23 21:15:00;;;;;;;40.80;25.00;;;;;;;10.02;53.38;98198.16;233435;1217;139947;-59
2022/04/23 21:20:04;;;;;;;39.30;25.00;;;;;;;9.98;53.50;98197.56;233453;1217;140020;-61
2022/04/23 21:25:07;;;;;;;44.70;26.10;;;;;;;9.91;53.48;98198.95;233347;1217;139569;-60
2022/04/23 21:30:11;;;;;;;42.40;25.50;;;;;;;9.85;53.83;98200.13;233442;1217;139305;-60
2022/04/23 21:35:15;;;;;;;37.90;25.90;;;;;;;9.75;53.90;98201.33;233270;1217;139233;-60
2022/04/23 21:40:19;;;;;;;39.40;25.40;;;;;;;9.67;54.18;98204.02;233335;1217;139857;-58
2022/04/23 21:45:22;;;;;;;47.60;28.00;;;;;;;9.60;54.17;98202.96;233372;1217;139012;-59
2022/04/23 21:50:25;;;;;;;44.70;28.80;;;;;;;9.51;54.27;98200.93;233324;1216;139579;-59
2022/04/23 21:55:28;;;;;;;45.70;28.20;;;;;;;9.43;54.46;98203.45;233309;1217;139901;-62
2022/04/23 22:00:32;;;;;;;49.70;29.30;;;;;;;9.37;54.63;98204.77;233275;1217;138913;-61
2022/04/23 22:05:38;;;;;;;55.40;29.60;;;;;;;9.26;54.55;98209.62;233481;1217;139016;-62
2022/04/23 22:10:41;;;;;;;49.40;28.80;;;;;;;9.18;54.75;98211.60;233306;1217;138751;-59
2022/04/23 22:15:44;;;;;;;44.70;28.20;;;;;;;9.11;54.94;98213.13;233412;1217;139292;-61
2022/04/23 22:20:47;;;;;;;47.50;28.80;;;;;;;9.04;55.07;98205.84;233392;1216;139020;-60
2022/04/23 22:25:52;;;;;;;47.50;30.20;;;;;;;8.96;55.13;98203.69;233361;1217;139022;-62
2022/04/23 22:30:55;;;;;;;48.10;28.80;;;;;;;8.88;55.21;98197.05;233250;1217;138785;-60
2022/04/23 22:35:59;;;;;;;47.00;28.40;;;;;;;8.79;55.37;98195.01;233463;1217;139551;-60
2022/04/23 22:41:02;;;;;;;45.90;28.60;;;;;;;8.71;55.44;98192.02;233394;1217;139022;-57
2022/04/23 22:46:05;;;;;;;45.50;27.90;;;;;;;8.61;55.31;98193.77;233350;1217;138780;-60
2022/04/23 22:51:08;;;;;;;50.40;30.50;;;;;;;8.47;55.53;98196.28;233356;1217;139210;-57
2022/04/23 22:56:11;;;;;;;46.50;29.60;;;;;;;8.37;55.57;98198.38;233427;1217;138821;-62
2022/04/23 23:01:14;;;;;;;49.30;29.60;;;;;;;8.27;55.58;98192.97;233316;1217;140632;-60
2022/04/23 23:06:17;;;;;;;49.10;30.80;;;;;;;8.23;55.95;98194.48;233560;1215;138582;-60
2022/04/23 23:11:20;;;;;;;52.10;30.00;;;;;;;8.21;56.02;98189.15;233361;1215;138895;-59
2022/04/23 23:16:24;;;;;;;46.30;29.70;;;;;;;8.17;56.29;98187.11;233350;1217;138790;-60
2022/04/23 23:21:27;;;;;;;46.30;29.20;;;;;;;8.10;56.12;98183.15;233199;1217;139589;-60
2022/04/23 23:26:30;;;;;;;46.20;29.10;;;;;;;8.03;56.42;98181.30;233392;1217;139075;-60
2022/04/23 23:31:33;;;;;;;45.50;27.60;;;;;;;7.94;56.41;98168.79;233214;1217;139347;-60
2022/04/23 23:36:36;;;;;;;48.90;28.50;;;;;;;7.82;56.55;98162.20;233267;1217;139027;-61
2022/04/23 23:41:39;;;;;;;45.10;28.40;;;;;;;7.71;56.43;98163.42;233363;1217;139321;-60
2022/04/23 23:46:42;;;;;;;45.00;28.80;;;;;;;7.65;56.71;98160.63;233343;1217;139910;-57
2022/04/23 23:51:47;;;;;;;47.10;27.90;;;;;;;7.62;56.95;98159.10;233325;1217;138432;-59
2022/04/23 23:56:50;;;;;;;44.40;27.40;;;;;;;7.57;57.02;98162.92;233332;1217;141688;-61
